This is the latest recevied weather packets stored in our database for station/object W4IFI. If no packets are shown the sender has not sent any weather packets the latest 10 day(s).
| Time | Temp. | Humidity | Pressure | Rain* | Wind** | Luminosity | Snow |
|---|---|---|---|---|---|---|---|
| 1777474803 | 9.44° C | 28% | 1017.3 hPa | 0 mm | - | - | - |
| 1777472703 | 8.33° C | 33% | 1017.3 hPa | 0 mm | - | - | - |
| 1777472403 | 7.78° C | 34% | 1017.3 hPa | 0 mm | - | - | - |
| 1777471803 | 6.67° C | 38% | 1017.3 hPa | 0 mm | - | - | - |
| 1777471503 | 6.11° C | 40% | 1017.3 hPa | 0 mm | - | - | - |
| 1777471203 | 5.56° C | 40% | 1017.1 hPa | 0 mm | - | - | - |
| 1777470903 | 5.56° C | 42% | 1017.2 hPa | 0 mm | - | - | - |
| 1777470603 | 5° C | 42% | 1017.1 hPa | 0 mm | - | - | - |
| 1777468503 | 3.89° C | 43% | 1016.9 hPa | 0 mm | - | - | - |
| 1777466703 | 2.22° C | 51% | 1017 hPa | 0 mm | - | - | - |
| 1777464903 | 1.11° C | 51% | 1016.8 hPa | 0 mm | - | - | - |
| 1777464003 | 1.11° C | 51% | 1016.7 hPa | 0 mm | - | - | - |
| 1777463703 | 1.11° C | 50% | 1016.6 hPa | 0 mm | - | - | - |
| 1777463103 | 1.11° C | 49% | 1016.7 hPa | 0 mm | - | - | - |
| 1777459938 | 2.78° C | 43% | 1016.7 hPa | 0 mm | - | - | - |
| 1777459637 | 2.78° C | 43% | 1016.7 hPa | 0 mm | - | - | - |
| 1777456803 | 3.33° C | 43% | 1016.8 hPa | 0 mm | - | - | - |
| 1777453803 | 2.78° C | 43% | 1017.3 hPa | 0 mm | - | - | - |
| 1777450203 | 2.22° C | 46% | 1017.8 hPa | 0 mm | - | - | - |
| 1777448704 | 1.11° C | 48% | 1018.1 hPa | 0 mm | - | - | - |
| 1777446003 | 1.11° C | 46% | 1018.3 hPa | 0 mm | - | - | - |
| 1777445703 | 1.11° C | 46% | 1018.4 hPa | 0 mm | - | - | - |
| 1777443604 | 1.67° C | 44% | 1018.3 hPa | 0 mm | - | - | - |
| 1777441803 | 1.67° C | 44% | 1018.1 hPa | 0 mm | - | - | - |
| 1777441203 | 1.67° C | 45% | 1018.1 hPa | 0 mm | - | - | - |
* Rain latest hour (hover to see other rain measurements)
** Current wind speed in m/s (hover to see current wind gust speed)